sensor_id;sensor_type;location;lat;lon;timestamp;pressure;altitude;pressure_sealevel;temperature;humidity
78354;BME280;67629;46.040;18.232;2024-01-25T00:00:28;100330.75;;;4.71;89.23
78354;BME280;67629;46.040;18.232;2024-01-25T00:00:58;100332.91;;;4.75;88.99
78354;BME280;67629;46.040;18.232;2024-01-25T00:01:29;100333.56;;;4.77;89.64
78354;BME280;67629;46.040;18.232;2024-01-25T00:02:00;100323.41;;;4.79;89.21
78354;BME280;67629;46.040;18.232;2024-01-25T00:02:30;100322.09;;;4.75;88.58
78354;BME280;67629;46.040;18.232;2024-01-25T00:03:01;100325.06;;;4.80;88.85
78354;BME280;67629;46.040;18.232;2024-01-25T00:03:31;100319.28;;;4.83;88.72
78354;BME280;67629;46.040;18.232;2024-01-25T00:04:02;100325.53;;;4.84;89.44
78354;BME280;67629;46.040;18.232;2024-01-25T00:04:33;100327.41;;;4.83;89.02
78354;BME280;67629;46.040;18.232;2024-01-25T00:05:04;100331.69;;;4.78;89.18
78354;BME280;67629;46.040;18.232;2024-01-25T00:05:35;100330.84;;;4.77;89.26
78354;BME280;67629;46.040;18.232;2024-01-25T00:06:06;100337.56;;;4.81;89.41
78354;BME280;67629;46.040;18.232;2024-01-25T00:06:38;100334.03;;;4.81;88.84
78354;BME280;67629;46.040;18.232;2024-01-25T00:10:59;100331.78;;;4.84;89.09
78354;BME280;67629;46.040;18.232;2024-01-25T00:11:30;100323.66;;;4.84;89.35
78354;BME280;67629;46.040;18.232;2024-01-25T00:12:02;100330.94;;;4.84;89.31
78354;BME280;67629;46.040;18.232;2024-01-25T00:12:32;100323.19;;;4.81;89.71
78354;BME280;67629;46.040;18.232;2024-01-25T00:13:03;100327.97;;;4.79;89.12
78354;BME280;67629;46.040;18.232;2024-01-25T00:13:34;100325.91;;;4.81;89.45
78354;BME280;67629;46.040;18.232;2024-01-25T00:14:05;100323.19;;;4.81;89.28
78354;BME280;67629;46.040;18.232;2024-01-25T00:14:35;100324.69;;;4.83;89.48
78354;BME280;67629;46.040;18.232;2024-01-25T00:15:06;100321.50;;;4.80;89.70
78354;BME280;67629;46.040;18.232;2024-01-25T00:15:37;100321.34;;;4.81;89.29
78354;BME280;67629;46.040;18.232;2024-01-25T00:16:07;100319.28;;;4.83;89.08
78354;BME280;67629;46.040;18.232;2024-01-25T00:16:41;100322.63;;;4.85;89.18
78354;BME280;67629;46.040;18.232;2024-01-25T00:17:12;100323.09;;;4.89;89.33
78354;BME280;67629;46.040;18.232;2024-01-25T00:17:43;100320.59;;;4.87;89.24
78354;BME280;67629;46.040;18.232;2024-01-25T00:18:14;100323.09;;;4.89;89.30
78354;BME280;67629;46.040;18.232;2024-01-25T00:18:44;100313.84;;;4.83;89.10
78354;BME280;67629;46.040;18.232;2024-01-25T00:19:15;100316.41;;;4.85;89.27
78354;BME280;67629;46.040;18.232;2024-01-25T00:19:45;100320.59;;;4.87;89.52
78354;BME280;67629;46.040;18.232;2024-01-25T00:25:49;100312.13;;;4.76;88.26
78354;BME280;67629;46.040;18.232;2024-01-25T00:26:20;100313.78;;;4.77;88.01
78354;BME280;67629;46.040;18.232;2024-01-25T00:26:50;100312.28;;;4.74;87.94
78354;BME280;67629;46.040;18.232;2024-01-25T00:27:21;100322.56;;;4.79;88.25
78354;BME280;67629;46.040;18.232;2024-01-25T00:27:52;100317.41;;;4.84;88.47
78354;BME280;67629;46.040;18.232;2024-01-25T00:28:23;100317.88;;;4.87;88.34
78354;BME280;67629;46.040;18.232;2024-01-25T00:28:53;100315.53;;;4.84;88.47
78354;BME280;67629;46.040;18.232;2024-01-25T00:29:24;100311.78;;;4.85;88.38
78354;BME280;67629;46.040;18.232;2024-01-25T00:29:54;100307.22;;;4.86;88.77
78354;BME280;67629;46.040;18.232;2024-01-25T00:30:25;100306.13;;;4.80;88.54
78354;BME280;67629;46.040;18.232;2024-01-25T00:30:56;100309.94;;;4.86;87.91
78354;BME280;67629;46.040;18.232;2024-01-25T00:31:26;100315.16;;;4.87;88.26
78354;BME280;67629;46.040;18.232;2024-01-25T00:31:57;100318.13;;;4.92;88.59
78354;BME280;67629;46.040;18.232;2024-01-25T00:32:28;100322.53;;;4.93;88.24
78354;BME280;67629;46.040;18.232;2024-01-25T00:32:59;100321.09;;;4.97;88.19
78354;BME280;67629;46.040;18.232;2024-01-25T00:33:30;100317.38;;;4.98;88.06
78354;BME280;67629;46.040;18.232;2024-01-25T00:34:02;100317.56;;;4.97;87.86
78354;BME280;67629;46.040;18.232;2024-01-25T00:37:03;100328.47;;;5.03;88.22
78354;BME280;67629;46.040;18.232;2024-01-25T00:38:57;100322.88;;;5.05;87.41
78354;BME280;67629;46.040;18.232;2024-01-25T00:39:29;100312.81;;;4.99;88.04
78354;BME280;67629;46.040;18.232;2024-01-25T00:40:00;100313.19;;;4.96;87.96
78354;BME280;67629;46.040;18.232;2024-01-25T00:40:31;100311.97;;;4.98;87.87
78354;BME280;67629;46.040;18.232;2024-01-25T00:41:02;100316.06;;;4.94;88.16
78354;BME280;67629;46.040;18.232;2024-01-25T00:41:34;100312.13;;;4.97;88.14
78354;BME280;67629;46.040;18.232;2024-01-25T00:42:06;100315.81;;;4.89;87.88
78354;BME280;67629;46.040;18.232;2024-01-25T00:42:41;100315.44;;;4.92;88.02
78354;BME280;67629;46.040;18.232;2024-01-25T00:43:15;100313.38;;;4.94;87.92
78354;BME280;67629;46.040;18.232;2024-01-25T00:43:46;100316.75;;;4.96;88.23
78354;BME280;67629;46.040;18.232;2024-01-25T00:44:17;100324.88;;;4.96;88.36
78354;BME280;67629;46.040;18.232;2024-01-25T00:44:48;100327.56;;;4.96;87.80
78354;BME280;67629;46.040;18.232;2024-01-25T00:45:20;100326.53;;;4.97;88.60
78354;BME280;67629;46.040;18.232;2024-01-25T00:45:52;100336.31;;;4.98;88.70
78354;BME280;67629;46.040;18.232;2024-01-25T00:46:23;100329.88;;;4.99;88.18
78354;BME280;67629;46.040;18.232;2024-01-25T00:46:54;100332.97;;;4.96;87.96
78354;BME280;67629;46.040;18.232;2024-01-25T00:47:25;100326.00;;;4.87;87.45
78354;BME280;67629;46.040;18.232;2024-01-25T00:47:57;100325.78;;;4.89;87.81
78354;BME280;67629;46.040;18.232;2024-01-25T00:53:28;100335.09;;;5.01;87.71
78354;BME280;67629;46.040;18.232;2024-01-25T00:54:58;100334.91;;;5.02;88.22
78354;BME280;67629;46.040;18.232;2024-01-25T00:55:29;100342.22;;;5.02;87.70
78354;BME280;67629;46.040;18.232;2024-01-25T00:56:00;100325.66;;;4.97;87.76
78354;BME280;67629;46.040;18.232;2024-01-25T00:56:31;100334.00;;;4.95;87.97
78354;BME280;67629;46.040;18.232;2024-01-25T00:57:02;100337.19;;;4.99;88.05
78354;BME280;67629;46.040;18.232;2024-01-25T00:57:33;100331.94;;;4.97;87.76
78354;BME280;67629;46.040;18.232;2024-01-25T00:58:04;100330.44;;;4.95;88.21
78354;BME280;67629;46.040;18.232;2024-01-25T00:58:35;100330.66;;;4.93;87.67
78354;BME280;67629;46.040;18.232;2024-01-25T00:59:06;100331.84;;;4.91;88.35
78354;BME280;67629;46.040;18.232;2024-01-25T00:59:37;100333.34;;;4.93;88.39
78354;BME280;67629;46.040;18.232;2024-01-25T01:00:11;100328.97;;;4.92;88.28
78354;BME280;67629;46.040;18.232;2024-01-25T01:00:42;100332.97;;;4.96;88.12
78354;BME280;67629;46.040;18.232;2024-01-25T01:01:13;100329.56;;;4.88;88.07
78354;BME280;67629;46.040;18.232;2024-01-25T01:01:46;100333.75;;;4.90;88.50
78354;BME280;67629;46.040;18.232;2024-01-25T01:02:21;100326.84;;;4.88;88.60
78354;BME280;67629;46.040;18.232;2024-01-25T01:02:53;100329.94;;;4.85;88.61
78354;BME280;67629;46.040;18.232;2024-01-25T01:08:27;100324.88;;;4.82;88.70
78354;BME280;67629;46.040;18.232;2024-01-25T01:08:58;100322.63;;;4.85;88.31
78354;BME280;67629;46.040;18.232;2024-01-25T01:09:29;100317.22;;;4.85;88.40
78354;BME280;67629;46.040;18.232;2024-01-25T01:10:00;100319.28;;;4.83;88.48
78354;BME280;67629;46.040;18.232;2024-01-25T01:10:31;100313.59;;;4.78;88.42
78354;BME280;67629;46.040;18.232;2024-01-25T01:11:02;100323.00;;;4.82;89.33
78354;BME280;67629;46.040;18.232;2024-01-25T01:11:32;100311.53;;;4.80;89.04
78354;BME280;67629;46.040;18.232;2024-01-25T01:12:03;100314.44;;;4.79;88.65
78354;BME280;67629;46.040;18.232;2024-01-25T01:12:34;100312.59;;;4.79;89.00
78354;BME280;67629;46.040;18.232;2024-01-25T01:13:07;100312.13;;;4.76;88.51
78354;BME280;67629;46.040;18.232;2024-01-25T01:13:38;100313.53;;;4.57;89.14
78354;BME280;67629;46.040;18.232;2024-01-25T01:14:08;100308.69;;;4.52;89.08
78354;BME280;67629;46.040;18.232;2024-01-25T01:14:39;100312.50;;;4.58;89.58
78354;BME280;67629;46.040;18.232;2024-01-25T01:15:10;100316.69;;;4.60;89.69
78354;BME280;67629;46.040;18.232;2024-01-25T01:15:40;100311.56;;;4.66;89.31
78354;BME280;67629;46.040;18.232;2024-01-25T01:16:11;100310.53;;;4.67;89.39
78354;BME280;67629;46.040;18.232;2024-01-25T01:16:42;100306.41;;;4.71;89.07
78354;BME280;67629;46.040;18.232;2024-01-25T01:17:12;100311.66;;;4.72;89.31
78354;BME280;67629;46.040;18.232;2024-01-25T01:17:43;100313.03;;;4.68;89.43
78354;BME280;67629;46.040;18.232;2024-01-25T01:19:10;100312.13;;;4.76;89.05
78354;BME280;67629;46.040;18.232;2024-01-25T01:19:41;100323.94;;;4.75;89.42
78354;BME280;67629;46.040;18.232;2024-01-25T01:20:13;100323.78;;;4.76;88.86
78354;BME280;67629;46.040;18.232;2024-01-25T01:20:43;100319.38;;;4.75;89.54
78354;BME280;67629;46.040;18.232;2024-01-25T01:21:14;100319.00;;;4.78;88.99
78354;BME280;67629;46.040;18.232;2024-01-25T01:21:45;100316.31;;;4.78;89.03
78354;BME280;67629;46.040;18.232;2024-01-25T01:22:15;100319.38;;;4.75;88.72
78354;BME280;67629;46.040;18.232;2024-01-25T01:22:46;100318.38;;;4.76;89.67
78354;BME280;67629;46.040;18.232;2024-01-25T01:24:58;100315.94;;;4.81;88.93
78354;BME280;67629;46.040;18.232;2024-01-25T01:25:30;100310.88;;;4.78;89.37
78354;BME280;67629;46.040;18.232;2024-01-25T01:26:01;100318.38;;;4.76;89.00
78354;BME280;67629;46.040;18.232;2024-01-25T01:26:31;100309.59;;;4.74;88.73
78354;BME280;67629;46.040;18.232;2024-01-25T01:27:02;100314.25;;;4.80;88.72
78354;BME280;67629;46.040;18.232;2024-01-25T01:27:33;100309.03;;;4.79;89.40
78354;BME280;67629;46.040;18.232;2024-01-25T01:28:04;100304.84;;;4.76;89.17
78354;BME280;67629;46.040;18.232;2024-01-25T01:28:34;100318.81;;;4.80;89.01
78354;BME280;67629;46.040;18.232;2024-01-25T01:29:05;100319.47;;;4.82;89.37
78354;BME280;67629;46.040;18.232;2024-01-25T01:29:36;100309.28;;;4.84;88.89
78354;BME280;67629;46.040;18.232;2024-01-25T01:30:07;100312.47;;;4.87;88.55
78354;BME280;67629;46.040;18.232;2024-01-25T01:30:38;100318.25;;;4.84;89.28
78354;BME280;67629;46.040;18.232;2024-01-25T01:31:11;100310.13;;;4.84;89.11
78354;BME280;67629;46.040;18.232;2024-01-25T01:31:42;100307.44;;;4.84;88.77
78354;BME280;67629;46.040;18.232;2024-01-25T01:32:13;100313.09;;;4.89;88.45
78354;BME280;67629;46.040;18.232;2024-01-25T01:32:43;100309.75;;;4.87;88.61
78354;BME280;67629;46.040;18.232;2024-01-25T01:34:12;100312.72;;;4.92;88.86
78354;BME280;67629;46.040;18.232;2024-01-25T01:34:44;100320.63;;;4.94;88.36
78354;BME280;67629;46.040;18.232;2024-01-25T01:35:15;100316.91;;;4.95;88.70
78354;BME280;67629;46.040;18.232;2024-01-25T01:36:23;100318.59;;;4.96;88.86
78354;BME280;67629;46.040;18.232;2024-01-25T01:36:54;100310.66;;;4.94;88.51
78354;BME280;67629;46.040;18.232;2024-01-25T01:37:25;100314.41;;;4.93;88.38
78354;BME280;67629;46.040;18.232;2024-01-25T01:37:56;100318.78;;;4.94;88.46
78354;BME280;67629;46.040;18.232;2024-01-25T01:38:26;100312.34;;;4.95;88.59
78354;BME280;67629;46.040;18.232;2024-01-25T01:38:57;100314.22;;;4.95;88.46
78354;BME280;67629;46.040;18.232;2024-01-25T01:39:28;100315.59;;;4.91;88.44
78354;BME280;67629;46.040;18.232;2024-01-25T01:39:59;100322.97;;;4.97;88.35
78354;BME280;67629;46.040;18.232;2024-01-25T01:40:30;100310.88;;;4.93;87.93
78354;BME280;67629;46.040;18.232;2024-01-25T01:41:00;100319.81;;;4.93;88.17
78354;BME280;67629;46.040;18.232;2024-01-25T01:41:31;100318.31;;;4.91;88.24
78354;BME280;67629;46.040;18.232;2024-01-25T01:42:02;100321.09;;;4.97;88.19
78354;BME280;67629;46.040;18.232;2024-01-25T01:42:33;100314.03;;;4.96;88.40
78354;BME280;67629;46.040;18.232;2024-01-25T01:43:04;100310.47;;;4.96;88.05
78354;BME280;67629;46.040;18.232;2024-01-25T01:43:35;100315.69;;;4.97;88.25
78354;BME280;67629;46.040;18.232;2024-01-25T01:44:06;100323.81;;;4.97;88.33
78354;BME280;67629;46.040;18.232;2024-01-25T01:44:36;100317.38;;;4.98;88.33
78354;BME280;67629;46.040;18.232;2024-01-25T01:47:16;100317.56;;;4.97;88.62
78354;BME280;67629;46.040;18.232;2024-01-25T01:47:47;100310.00;;;4.92;88.28
78354;BME280;67629;46.040;18.232;2024-01-25T01:48:17;100320.09;;;4.98;88.27
78354;BME280;67629;46.040;18.232;2024-01-25T01:48:48;100319.63;;;4.95;88.31
78354;BME280;67629;46.040;18.232;2024-01-25T01:49:19;100329.88;;;4.99;88.80
78354;BME280;67629;46.040;18.232;2024-01-25T01:49:50;100325.28;;;5.00;88.44
78354;BME280;67629;46.040;18.232;2024-01-25T01:50:21;100321.38;;;5.02;88.37
78354;BME280;67629;46.040;18.232;2024-01-25T01:50:52;100321.56;;;5.01;88.10
78354;BME280;67629;46.040;18.232;2024-01-25T01:51:22;100326.34;;;4.99;87.77
78354;BME280;67629;46.040;18.232;2024-01-25T01:51:54;100326.53;;;4.97;88.40
78354;BME280;67629;46.040;18.232;2024-01-25T01:52:24;100321.56;;;5.01;88.28
78354;BME280;67629;46.040;18.232;2024-01-25T01:52:55;100330.91;;;4.98;88.04
78354;BME280;67629;46.040;18.232;2024-01-25T01:53:26;100334.25;;;5.00;87.89
78354;BME280;67629;46.040;18.232;2024-01-25T01:53:57;100331.47;;;4.94;87.96
78354;BME280;67629;46.040;18.232;2024-01-25T01:54:30;100326.13;;;4.79;88.97
78354;BME280;67629;46.040;18.232;2024-01-25T01:55:01;100331.53;;;4.79;88.90
78354;BME280;67629;46.040;18.232;2024-01-25T01:55:32;100327.22;;;4.85;89.09
78354;BME280;67629;46.040;18.232;2024-01-25T01:56:04;100328.13;;;4.92;89.43
78354;BME280;67629;46.040;18.232;2024-01-25T01:56:35;100329.81;;;4.93;88.80
78354;BME280;67629;46.040;18.232;2024-01-25T01:57:07;100322.31;;;4.95;88.48
78354;BME280;67629;46.040;18.232;2024-01-25T01:57:39;100330.44;;;4.95;88.41
78354;BME280;67629;46.040;18.232;2024-01-25T01:58:10;100335.69;;;4.96;87.96
78354;BME280;67629;46.040;18.232;2024-01-25T01:58:41;100326.13;;;5.00;88.31
78354;BME280;67629;46.040;18.232;2024-01-25T01:59:12;100329.88;;;4.99;88.56
78354;BME280;67629;46.040;18.232;2024-01-25T01:59:43;100335.69;;;4.96;87.96
78354;BME280;67629;46.040;18.232;2024-01-25T02:00:15;100321.69;;;4.93;88.34
78354;BME280;67629;46.040;18.232;2024-01-25T02:00:49;100320.94;;;4.99;88.70
78354;BME280;67629;46.040;18.232;2024-01-25T02:01:20;100317.63;;;5.03;88.62
78354;BME280;67629;46.040;18.232;2024-01-25T02:01:52;100323.16;;;4.95;88.19
78354;BME280;67629;46.040;18.232;2024-01-25T02:02:23;100326.13;;;5.00;88.65
78354;BME280;67629;46.040;18.232;2024-01-25T02:02:54;100319.03;;;4.99;88.61
78354;BME280;67629;46.040;18.232;2024-01-25T02:03:25;100321.88;;;4.91;88.16
78354;BME280;67629;46.040;18.232;2024-01-25T02:03:55;100314.78;;;4.90;88.56
78354;BME280;67629;46.040;18.232;2024-01-25T02:04:26;100316.53;;;4.98;88.48
78354;BME280;67629;46.040;18.232;2024-01-25T02:04:57;100311.19;;;5.04;88.25
78354;BME280;67629;46.040;18.232;2024-01-25T02:06:27;100314.84;;;4.97;87.72
78354;BME280;67629;46.040;18.232;2024-01-25T02:07:01;100315.59;;;4.91;88.01
78354;BME280;67629;46.040;18.232;2024-01-25T02:07:32;100314.22;;;4.95;88.50
78354;BME280;67629;46.040;18.232;2024-01-25T02:08:03;100305.91;;;4.96;88.22
78354;BME280;67629;46.040;18.232;2024-01-25T02:08:34;100312.81;;;4.99;87.88
78354;BME280;67629;46.040;18.232;2024-01-25T02:09:06;100304.09;;;5.03;88.62
78354;BME280;67629;46.040;18.232;2024-01-25T02:09:37;100305.41;;;5.07;88.02
78354;BME280;67629;46.040;18.232;2024-01-25T02:10:08;100307.06;;;5.08;88.03
78354;BME280;67629;46.040;18.232;2024-01-25T02:10:39;100308.50;;;5.04;87.98
78354;BME280;67629;46.040;18.232;2024-01-25T02:11:12;100306.81;;;5.03;88.26
78354;BME280;67629;46.040;18.232;2024-01-25T02:11:43;100305.41;;;5.07;88.22
78354;BME280;67629;46.040;18.232;2024-01-25T02:12:17;100294.13;;;5.04;88.11
78354;BME280;67629;46.040;18.232;2024-01-25T02:12:47;100298.69;;;5.03;88.05
78354;BME280;67629;46.040;18.232;2024-01-25T02:13:18;100303.25;;;5.03;87.92
78354;BME280;67629;46.040;18.232;2024-01-25T02:13:49;100307.00;;;5.02;88.22
78354;BME280;67629;46.040;18.232;2024-01-25T02:14:19;100307.28;;;5.07;87.99
78354;BME280;67629;46.040;18.232;2024-01-25T02:14:50;100295.38;;;5.08;88.20
78354;BME280;67629;46.040;18.232;2024-01-25T02:15:20;100306.44;;;5.06;88.12
78354;BME280;67629;46.040;18.232;2024-01-25T02:15:51;100304.34;;;5.08;87.66
78354;BME280;67629;46.040;18.232;2024-01-25T02:16:22;100301.66;;;5.08;87.70
78354;BME280;67629;46.040;18.232;2024-01-25T02:16:52;100301.22;;;5.05;87.43
78354;BME280;67629;46.040;18.232;2024-01-25T02:17:23;100301.66;;;5.08;87.76
78354;BME280;67629;46.040;18.232;2024-01-25T02:17:55;100299.16;;;5.07;88.11
78354;BME280;67629;46.040;18.232;2024-01-25T02:18:26;100298.94;;;5.08;87.72
78354;BME280;67629;46.040;18.232;2024-01-25T02:18:57;100297.06;;;5.09;87.96
78354;BME280;67629;46.040;18.232;2024-01-25T02:19:28;100298.00;;;5.16;87.88
78354;BME280;67629;46.040;18.232;2024-01-25T02:19:58;100299.03;;;5.15;87.84
78354;BME280;67629;46.040;18.232;2024-01-25T02:20:29;100284.47;;;5.16;87.26
78354;BME280;67629;46.040;18.232;2024-01-25T02:21:00;100298.84;;;5.16;87.34
78354;BME280;67629;46.040;18.232;2024-01-25T02:21:30;100290.72;;;5.16;87.26
78354;BME280;67629;46.040;18.232;2024-01-25T02:22:04;100284.06;;;5.19;87.28
78354;BME280;67629;46.040;18.232;2024-01-25T02:22:35;100295.84;;;5.11;87.69
78354;BME280;67629;46.040;18.232;2024-01-25T02:23:05;100297.53;;;5.12;87.60
78354;BME280;67629;46.040;18.232;2024-01-25T02:23:36;100292.38;;;5.17;87.77
78354;BME280;67629;46.040;18.232;2024-01-25T02:24:07;100286.78;;;5.19;87.31
78354;BME280;67629;46.040;18.232;2024-01-25T02:24:37;100299.72;;;5.24;86.76
78354;BME280;67629;46.040;18.232;2024-01-25T02:25:08;100283.47;;;5.24;87.13
78354;BME280;67629;46.040;18.232;2024-01-25T02:25:54;100282.47;;;5.25;86.97
78354;BME280;67629;46.040;18.232;2024-01-25T02:26:39;100285.56;;;5.22;87.04
78354;BME280;67629;46.040;18.232;2024-01-25T02:27:10;100289.34;;;5.27;86.90
78354;BME280;67629;46.040;18.232;2024-01-25T02:27:41;100278.16;;;5.30;86.94
78354;BME280;67629;46.040;18.232;2024-01-25T02:28:26;100273.13;;;5.27;86.92
78354;BME280;67629;46.040;18.232;2024-01-25T02:29:12;100281.16;;;5.21;87.05
78354;BME280;67629;46.040;18.232;2024-01-25T02:29:58;100284.84;;;5.13;87.28
78354;BME280;67629;46.040;18.232;2024-01-25T02:30:29;100281.38;;;5.19;87.34
78354;BME280;67629;46.040;18.232;2024-01-25T02:31:14;100284.88;;;5.19;87.30
78354;BME280;67629;46.040;18.232;2024-01-25T02:32:00;100279.09;;;5.23;87.49
78354;BME280;67629;46.040;18.232;2024-01-25T02:32:31;100280.41;;;5.27;86.91
78354;BME280;67629;46.040;18.232;2024-01-25T02:33:20;100291.47;;;5.32;87.32
78354;BME280;67629;46.040;18.232;2024-01-25T02:33:51;100284.41;;;5.31;86.21
78354;BME280;67629;46.040;18.232;2024-01-25T02:34:21;100287.75;;;5.33;86.54
78354;BME280;67629;46.040;18.232;2024-01-25T02:34:52;100283.09;;;5.27;86.63
78354;BME280;67629;46.040;18.232;2024-01-25T02:35:23;100294.78;;;5.27;86.29
78354;BME280;67629;46.040;18.232;2024-01-25T02:35:53;100282.47;;;5.25;86.02
78354;BME280;67629;46.040;18.232;2024-01-25T02:36:24;100282.28;;;5.05;87.15
78354;BME280;67629;46.040;18.232;2024-01-25T02:36:55;100285.78;;;5.05;87.29
78354;BME280;67629;46.040;18.232;2024-01-25T02:37:26;100295.94;;;5.18;86.84
78354;BME280;67629;46.040;18.232;2024-01-25T02:37:56;100289.09;;;5.22;86.69
78354;BME280;67629;46.040;18.232;2024-01-25T02:38:27;100294.44;;;5.15;86.68
78354;BME280;67629;46.040;18.232;2024-01-25T02:38:58;100296.00;;;5.25;87.59
78354;BME280;67629;46.040;18.232;2024-01-25T02:39:29;100295.78;;;5.26;86.88
78354;BME280;67629;46.040;18.232;2024-01-25T02:39:59;100302.69;;;5.29;87.03
78354;BME280;67629;46.040;18.232;2024-01-25T02:40:30;100300.97;;;5.21;86.42
78354;BME280;67629;46.040;18.232;2024-01-25T02:41:01;100297.66;;;5.26;86.41
78354;BME280;67629;46.040;18.232;2024-01-25T02:41:32;100304.00;;;5.33;86.66
78354;BME280;67629;46.040;18.232;2024-01-25T02:42:03;100300.06;;;5.35;86.80
78354;BME280;67629;46.040;18.232;2024-01-25T02:42:33;100299.81;;;5.30;86.52
78354;BME280;67629;46.040;18.232;2024-01-25T02:44:00;100303.06;;;5.26;86.71
78354;BME280;67629;46.040;18.232;2024-01-25T02:44:31;100307.28;;;5.28;86.81
78354;BME280;67629;46.040;18.232;2024-01-25T02:45:03;100296.25;;;5.30;86.17
78354;BME280;67629;46.040;18.232;2024-01-25T02:46:12;100297.81;;;5.39;86.45
78354;BME280;67629;46.040;18.232;2024-01-25T02:46:42;100303.88;;;5.41;85.83
78354;BME280;67629;46.040;18.232;2024-01-25T02:47:15;100308.06;;;5.43;85.72
78354;BME280;67629;46.040;18.232;2024-01-25T02:47:45;100308.91;;;5.44;85.93
78354;BME280;67629;46.040;18.232;2024-01-25T02:48:16;100301.22;;;5.47;85.85
78354;BME280;67629;46.040;18.232;2024-01-25T02:48:48;100303.47;;;5.44;86.54
78354;BME280;67629;46.040;18.232;2024-01-25T02:49:18;100304.72;;;5.41;86.17
78354;BME280;67629;46.040;18.232;2024-01-25T02:49:49;100302.63;;;5.43;86.37
78354;BME280;67629;46.040;18.232;2024-01-25T02:50:20;100303.63;;;5.36;85.90
78354;BME280;67629;46.040;18.232;2024-01-25T02:50:50;100302.13;;;5.33;86.04
78354;BME280;67629;46.040;18.232;2024-01-25T02:51:21;100307.16;;;5.36;86.06
78354;BME280;67629;46.040;18.232;2024-01-25T02:51:52;100307.28;;;5.28;86.23
78354;BME280;67629;46.040;18.232;2024-01-25T02:52:22;100308.56;;;5.32;86.49
78354;BME280;67629;46.040;18.232;2024-01-25T02:52:53;100299.84;;;5.37;86.00
78354;BME280;67629;46.040;18.232;2024-01-25T02:53:23;100297.56;;;5.34;86.69
78354;BME280;67629;46.040;18.232;2024-01-25T02:53:54;100299.66;;;5.17;86.51
78354;BME280;67629;46.040;18.232;2024-01-25T02:54:25;100304.66;;;5.13;86.98
78354;BME280;67629;46.040;18.232;2024-01-25T02:54:55;100299.28;;;5.20;86.89
78354;BME280;67629;46.040;18.232;2024-01-25T02:55:26;100309.69;;;5.16;87.04
78354;BME280;67629;46.040;18.232;2024-01-25T02:55:58;100296.31;;;5.15;87.05
78354;BME280;67629;46.040;18.232;2024-01-25T02:56:28;100296.13;;;5.16;87.10
78354;BME280;67629;46.040;18.232;2024-01-25T02:57:05;100296.00;;;5.25;87.40
78354;BME280;67629;46.040;18.232;2024-01-25T02:57:36;100293.09;;;5.26;87.49
78354;BME280;67629;46.040;18.232;2024-01-25T02:58:06;100291.84;;;5.29;86.67
78354;BME280;67629;46.040;18.232;2024-01-25T02:58:37;100289.53;;;5.26;86.70
78354;BME280;67629;46.040;18.232;2024-01-25T02:59:08;100293.53;;;5.30;87.21
78354;BME280;67629;46.040;18.232;2024-01-25T02:59:38;100292.72;;;5.29;86.85
78354;BME280;67629;46.040;18.232;2024-01-25T03:00:10;100295.88;;;5.33;86.88
78354;BME280;67629;46.040;18.232;2024-01-25T03:00:40;100292.72;;;5.29;86.47
78354;BME280;67629;46.040;18.232;2024-01-25T03:01:11;100295.16;;;5.24;86.73
78354;BME280;67629;46.040;18.232;2024-01-25T03:01:42;100294.38;;;5.30;86.67
78354;BME280;67629;46.040;18.232;2024-01-25T03:02:12;100296.25;;;5.30;86.69
78354;BME280;67629;46.040;18.232;2024-01-25T03:02:43;100302.75;;;5.14;87.56
78354;BME280;67629;46.040;18.232;2024-01-25T03:03:14;100301.13;;;5.19;86.95
78354;BME280;67629;46.040;18.232;2024-01-25T03:04:00;100284.47;;;5.16;87.72
78354;BME280;67629;46.040;18.232;2024-01-25T03:04:46;100284.50;;;5.23;87.01
78354;BME280;67629;46.040;18.232;2024-01-25T03:05:16;100284.50;;;5.23;86.96
78354;BME280;67629;46.040;18.232;2024-01-25T03:05:47;100288.75;;;5.32;86.83
78354;BME280;67629;46.040;18.232;2024-01-25T03:06:18;100283.16;;;5.33;87.06
78354;BME280;67629;46.040;18.232;2024-01-25T03:06:48;100289.44;;;5.34;86.78
78354;BME280;67629;46.040;18.232;2024-01-25T03:07:19;100283.81;;;5.35;86.67
78354;BME280;67629;46.040;18.232;2024-01-25T03:07:50;100279.94;;;5.23;87.33
78354;BME280;67629;46.040;18.232;2024-01-25T03:08:21;100289.91;;;5.23;87.57
78354;BME280;67629;46.040;18.232;2024-01-25T03:08:51;100290.06;;;5.36;86.61
78354;BME280;67629;46.040;18.232;2024-01-25T03:09:22;100298.66;;;5.39;86.52
78354;BME280;67629;46.040;18.232;2024-01-25T03:09:54;100294.31;;;5.45;86.43
78354;BME280;67629;46.040;18.232;2024-01-25T03:10:24;100293.16;;;5.33;86.98
78354;BME280;67629;46.040;18.232;2024-01-25T03:10:55;100298.56;;;5.33;86.82
78354;BME280;67629;46.040;18.232;2024-01-25T03:11:27;100297.34;;;5.35;86.86
78354;BME280;67629;46.040;18.232;2024-01-25T03:11:57;100301.53;;;5.38;87.19
78354;BME280;67629;46.040;18.232;2024-01-25T03:12:28;100305.09;;;5.38;86.45
78354;BME280;67629;46.040;18.232;2024-01-25T03:12:59;100302.00;;;5.41;87.23
78354;BME280;67629;46.040;18.232;2024-01-25T03:13:29;100302.00;;;5.41;87.04
78354;BME280;67629;46.040;18.232;2024-01-25T03:14:00;100298.66;;;5.39;86.74
78354;BME280;67629;46.040;18.232;2024-01-25T03:15:10;100301.28;;;5.33;87.13
78354;BME280;67629;46.040;18.232;2024-01-25T03:15:42;100295.50;;;5.36;87.07
78354;BME280;67629;46.040;18.232;2024-01-25T03:16:14;100297.34;;;5.35;86.71
78354;BME280;67629;46.040;18.232;2024-01-25T03:16:45;100296.50;;;5.35;86.80
78354;BME280;67629;46.040;18.232;2024-01-25T03:17:15;100296.50;;;5.35;86.94
78354;BME280;67629;46.040;18.232;2024-01-25T03:17:46;100288.59;;;5.33;86.92
78354;BME280;67629;46.040;18.232;2024-01-25T03:18:17;100291.94;;;5.35;86.50
78354;BME280;67629;46.040;18.232;2024-01-25T03:18:47;100287.94;;;5.31;86.23